createdAt,value
2022-08-19T00:00:59.191Z,89.40
2022-08-19T00:03:25.931Z,89.90
2022-08-19T00:05:52.669Z,88.60
2022-08-19T00:08:19.501Z,89.20
2022-08-19T00:10:46.238Z,89.30
2022-08-19T00:13:13.004Z,90.10
2022-08-19T00:15:39.808Z,89.20
2022-08-19T00:18:07.893Z,90.10
2022-08-19T00:20:35.249Z,89.40
2022-08-19T00:23:01.974Z,90.00
2022-08-19T00:25:30.651Z,90.20
2022-08-19T00:27:57.653Z,91.20
2022-08-19T00:30:24.864Z,90.90
2022-08-19T00:32:51.776Z,90.80
2022-08-19T00:35:20.164Z,91.00
2022-08-19T00:37:48.610Z,90.80
2022-08-19T00:40:16.111Z,91.00
2022-08-19T00:42:42.980Z,90.50
2022-08-19T00:45:13.131Z,90.80
2022-08-19T00:47:40.139Z,90.60
2022-08-19T00:50:08.814Z,90.90
2022-08-19T00:52:40.343Z,90.70
2022-08-19T00:55:09.341Z,90.80
2022-08-19T00:57:38.790Z,91.00
2022-08-19T01:00:08.614Z,91.20
2022-08-19T01:02:36.479Z,91.30
2022-08-19T01:05:07.518Z,91.50
2022-08-19T01:07:38.409Z,91.40
2022-08-19T01:10:08.492Z,91.50
2022-08-19T01:12:35.857Z,91.40
2022-08-19T01:15:03.787Z,91.50
2022-08-19T01:17:30.730Z,91.40
2022-08-19T01:19:57.539Z,91.50
2022-08-19T01:22:33.647Z,91.60
2022-08-19T01:25:01.277Z,91.20
2022-08-19T01:27:29.516Z,91.40
2022-08-19T01:30:11.964Z,91.70
2022-08-19T01:32:38.728Z,91.50
2022-08-19T01:35:06.308Z,91.40
2022-08-19T01:37:47.957Z,91.30
2022-08-19T01:40:16.286Z,91.60
2022-08-19T01:42:43.105Z,91.70
2022-08-19T01:45:10.754Z,91.50
2022-08-19T01:47:37.982Z,91.60
2022-08-19T01:50:06.649Z,91.50
2022-08-19T01:52:35.278Z,91.60
2022-08-19T01:55:04.546Z,91.10
2022-08-19T01:57:31.393Z,91.90
2022-08-19T01:59:58.251Z,91.40
2022-08-19T02:02:24.986Z,91.50
2022-08-19T02:04:51.700Z,91.50
2022-08-19T02:07:20.218Z,91.20
2022-08-19T02:09:46.959Z,91.80
2022-08-19T02:12:16.062Z,92.00
2022-08-19T02:14:43.529Z,91.90
2022-08-19T02:17:10.262Z,91.90
2022-08-19T02:19:39.087Z,92.10
2022-08-19T02:22:07.979Z,91.80
2022-08-19T02:24:34.721Z,92.00
2022-08-19T02:27:01.433Z,92.30
2022-08-19T02:29:29.506Z,92.10
2022-08-19T02:31:56.242Z,91.70
2022-08-19T02:34:22.966Z,92.10
2022-08-19T02:36:51.978Z,92.10
2022-08-19T02:39:19.422Z,92.20
2022-08-19T02:41:46.231Z,91.90
2022-08-19T02:44:29.201Z,92.20
2022-08-19T02:46:58.943Z,92.90
2022-08-19T02:49:25.695Z,92.70
2022-08-19T02:51:52.451Z,92.70
2022-08-19T02:54:19.494Z,92.60
2022-08-19T02:56:46.249Z,92.60
2022-08-19T02:59:13.393Z,92.20
2022-08-19T03:01:42.325Z,92.50
2022-08-19T03:04:13.861Z,92.60
2022-08-19T03:06:42.667Z,92.30
2022-08-19T03:09:10.862Z,92.40
2022-08-19T03:11:38.450Z,92.20
2022-08-19T03:14:06.552Z,91.90
2022-08-19T03:16:42.187Z,91.90
2022-08-19T03:19:10.275Z,92.30
2022-08-19T03:21:37.314Z,91.80
2022-08-19T03:24:06.708Z,92.40
2022-08-19T03:26:33.636Z,92.60
2022-08-19T03:29:04.836Z,92.60
2022-08-19T03:31:44.350Z,92.40
2022-08-19T03:34:15.839Z,92.60
2022-08-19T03:36:42.809Z,92.50
2022-08-19T03:39:11.183Z,92.80
2022-08-19T03:41:45.680Z,92.80
2022-08-19T03:44:17.860Z,92.90
2022-08-19T03:46:46.664Z,93.00
2022-08-19T03:49:15.156Z,92.90
2022-08-19T03:51:43.063Z,92.00
2022-08-19T03:54:13.217Z,92.10
2022-08-19T03:56:42.799Z,92.60
2022-08-19T03:59:12.126Z,92.70
2022-08-19T04:01:38.887Z,92.70
2022-08-19T04:04:05.718Z,92.70
2022-08-19T04:06:38.774Z,93.30
2022-08-19T04:09:07.717Z,92.10
2022-08-19T04:11:43.508Z,92.90
2022-08-19T04:14:12.909Z,92.80
2022-08-19T04:16:39.688Z,92.80
2022-08-19T04:19:07.354Z,92.00
2022-08-19T04:21:35.563Z,92.60
2022-08-19T04:24:04.081Z,93.10
2022-08-19T04:26:33.861Z,92.40
2022-08-19T04:29:02.198Z,92.90
2022-08-19T04:31:30.892Z,92.50
2022-08-19T04:34:00.077Z,92.80
2022-08-19T04:36:28.791Z,92.10
2022-08-19T04:38:58.907Z,92.50
2022-08-19T04:41:26.636Z,92.80
2022-08-19T04:43:53.414Z,93.30
2022-08-19T04:46:40.170Z,93.30
2022-08-19T04:49:10.481Z,92.90
2022-08-19T04:51:42.665Z,92.60
2022-08-19T04:54:11.191Z,92.10
2022-08-19T04:56:39.429Z,93.10
2022-08-19T04:59:06.345Z,92.40
2022-08-19T05:01:34.214Z,93.10
2022-08-19T05:04:01.862Z,92.70
2022-08-19T05:06:28.769Z,93.60
2022-08-19T05:08:55.841Z,93.10
2022-08-19T05:11:26.750Z,92.40
2022-08-19T05:13:53.925Z,93.00
2022-08-19T05:16:22.686Z,92.70
2022-08-19T05:18:50.062Z,94.30
2022-08-19T05:21:18.921Z,94.00
2022-08-19T05:23:45.667Z,93.00
2022-08-19T05:26:12.542Z,93.70
2022-08-19T05:28:40.643Z,93.60
2022-08-19T05:31:07.449Z,93.70
2022-08-19T05:33:34.174Z,93.90
2022-08-19T05:36:02.613Z,94.20
2022-08-19T05:38:29.558Z,93.00
2022-08-19T05:40:56.610Z,93.10
2022-08-19T05:43:23.355Z,93.50
2022-08-19T05:45:51.430Z,93.40
2022-08-19T05:48:18.327Z,93.00
2022-08-19T05:50:45.075Z,93.00
2022-08-19T05:53:11.836Z,93.20
2022-08-19T05:55:38.592Z,93.50
2022-08-19T05:58:05.487Z,93.60
2022-08-19T06:00:32.319Z,93.70
2022-08-19T06:03:00.703Z,93.90
2022-08-19T06:05:44.808Z,93.30
2022-08-19T06:08:17.118Z,93.50
2022-08-19T06:10:44.883Z,94.10
2022-08-19T06:13:11.645Z,93.60
2022-08-19T06:15:38.362Z,93.80
2022-08-19T06:18:06.435Z,94.80
2022-08-19T06:20:54.624Z,94.40
2022-08-19T06:23:19.997Z,94.80
2022-08-19T06:25:51.207Z,93.80
2022-08-19T06:28:18.184Z,94.00
2022-08-19T06:30:45.185Z,93.90
2022-08-19T06:33:13.320Z,93.50
2022-08-19T06:35:40.842Z,93.80
2022-08-19T06:38:07.654Z,93.70
2022-08-19T06:40:34.450Z,93.80
2022-08-19T06:43:02.632Z,93.60
2022-08-19T06:45:34.905Z,94.40
2022-08-19T06:48:03.261Z,94.60
2022-08-19T06:50:31.537Z,94.30
2022-08-19T06:52:58.276Z,93.90
2022-08-19T06:55:31.163Z,94.60
2022-08-19T06:58:02.593Z,94.60
2022-08-19T07:03:05.967Z,94.20
2022-08-19T07:05:39.487Z,94.00
2022-08-19T07:08:06.309Z,94.60
2022-08-19T07:10:33.065Z,94.30
2022-08-19T07:12:59.839Z,94.60
2022-08-19T07:15:26.617Z,94.30
2022-08-19T07:17:53.355Z,95.00
2022-08-19T07:20:20.338Z,94.90
2022-08-19T07:22:48.555Z,95.20
2022-08-19T07:25:15.546Z,94.90
2022-08-19T07:27:42.322Z,94.50
2022-08-19T07:30:13.585Z,95.50
2022-08-19T07:32:40.424Z,95.20
2022-08-19T07:35:08.450Z,94.80
2022-08-19T07:37:35.239Z,95.30
2022-08-19T07:40:05.558Z,94.70
2022-08-19T07:42:32.903Z,95.10
2022-08-19T07:44:59.856Z,95.10
2022-08-19T07:47:49.645Z,94.60
2022-08-19T07:50:13.645Z,94.50
2022-08-19T07:52:40.826Z,94.80
2022-08-19T07:55:39.909Z,95.20
2022-08-19T07:57:57.435Z,95.80
2022-08-19T08:00:24.443Z,95.40
2022-08-19T08:02:51.933Z,95.60
2022-08-19T08:05:22.507Z,95.10
2022-08-19T08:07:49.310Z,95.00
2022-08-19T08:10:20.810Z,95.30
2022-08-19T08:13:08.807Z,94.80
2022-08-19T08:15:40.039Z,95.50
2022-08-19T08:18:09.138Z,95.30
2022-08-19T08:20:36.184Z,95.50
2022-08-19T08:23:03.091Z,95.70
2022-08-19T08:25:32.467Z,95.40
2022-08-19T08:28:01.068Z,95.20
2022-08-19T08:30:31.217Z,95.50
2022-08-19T08:32:59.695Z,96.40
2022-08-19T08:35:26.507Z,96.00
2022-08-19T08:37:55.862Z,96.00
2022-08-19T08:40:29.559Z,96.10
2022-08-19T08:45:33.554Z,96.60
2022-08-19T08:48:21.939Z,96.40
2022-08-19T08:50:51.990Z,95.90
2022-08-19T08:53:29.199Z,96.30
2022-08-19T08:55:57.818Z,95.50
2022-08-19T08:58:32.586Z,95.60
2022-08-19T09:00:59.337Z,96.60
2022-08-19T09:03:31.419Z,95.90
2022-08-19T09:06:02.997Z,95.90
2022-08-19T09:08:40.205Z,96.80
2022-08-19T09:11:10.704Z,96.30
2022-08-19T09:13:50.894Z,96.50
2022-08-19T09:16:21.168Z,96.60
2022-08-19T09:18:50.417Z,96.70
2022-08-19T09:21:17.334Z,96.70
2022-08-19T09:23:44.220Z,97.20
2022-08-19T09:26:13.331Z,96.70
2022-08-19T09:28:48.876Z,97.00
2022-08-19T09:31:19.214Z,97.00
2022-08-19T09:33:46.107Z,97.60
2022-08-19T09:36:24.336Z,98.00
2022-08-19T09:39:01.477Z,97.60
2022-08-19T09:41:28.865Z,98.10
2022-08-19T09:43:59.239Z,97.60
2022-08-19T09:46:28.705Z,97.90
2022-08-19T09:48:58.964Z,97.60
2022-08-19T09:51:33.599Z,97.60
2022-08-19T09:54:04.548Z,97.50
2022-08-19T09:56:34.118Z,97.60
2022-08-19T09:59:03.838Z,97.60
2022-08-19T10:01:32.855Z,97.00
2022-08-19T10:04:01.438Z,97.50
2022-08-19T10:06:45.636Z,97.20
2022-08-19T10:09:15.415Z,97.90
2022-08-19T10:11:52.199Z,96.70
2022-08-19T10:14:22.458Z,97.30
2022-08-19T10:16:49.216Z,97.50
2022-08-19T10:19:15.984Z,97.60
2022-08-19T10:21:52.793Z,98.20
2022-08-19T10:24:19.906Z,97.80
2022-08-19T10:26:46.661Z,97.60
2022-08-19T10:29:13.958Z,97.70
2022-08-19T10:32:02.328Z,97.20
2022-08-19T10:34:31.423Z,97.40
2022-08-19T10:37:01.323Z,97.50
2022-08-19T10:39:30.557Z,97.30
2022-08-19T10:41:57.509Z,97.90
2022-08-19T10:44:24.755Z,97.80
2022-08-19T10:46:58.673Z,97.70
2022-08-19T10:49:28.379Z,97.90
2022-08-19T10:51:55.771Z,97.50
2022-08-19T10:54:24.318Z,97.50
2022-08-19T10:56:58.231Z,98.10
2022-08-19T10:59:27.703Z,98.50
2022-08-19T11:01:55.790Z,98.70
2022-08-19T11:04:28.905Z,98.80
2022-08-19T11:06:57.765Z,99.10
2022-08-19T11:09:33.581Z,99.20
2022-08-19T11:12:02.622Z,99.40
2022-08-19T11:14:32.132Z,99.00
2022-08-19T11:17:01.365Z,99.00
2022-08-19T11:19:28.116Z,99.50
2022-08-19T11:21:54.886Z,99.20
2022-08-19T11:24:27.074Z,99.20
2022-08-19T11:26:55.386Z,99.20
2022-08-19T11:29:22.700Z,99.80
2022-08-19T11:31:50.740Z,99.80
2022-08-19T11:34:20.615Z,99.90
2022-08-19T11:36:48.515Z,99.60
2022-08-19T11:39:17.209Z,99.60
2022-08-19T11:41:45.744Z,99.40
2022-08-19T11:44:12.990Z,98.70
2022-08-19T11:46:39.698Z,98.60
2022-08-19T11:49:10.735Z,98.90
2022-08-19T11:51:40.662Z,99.30
2022-08-19T11:54:07.491Z,99.10
2022-08-19T11:56:34.246Z,99.10
2022-08-19T11:59:02.734Z,99.40
2022-08-19T12:01:30.015Z,99.30
2022-08-19T12:03:57.800Z,98.60
2022-08-19T12:06:27.179Z,98.50
2022-08-19T12:08:53.979Z,98.50
2022-08-19T12:11:20.779Z,98.40
2022-08-19T12:13:47.741Z,98.30
2022-08-19T12:16:18.374Z,98.30
2022-08-19T12:18:45.779Z,98.50
2022-08-19T12:21:13.111Z,98.20
2022-08-19T12:23:40.253Z,98.30
2022-08-19T12:26:07.242Z,98.00
2022-08-19T12:28:34.029Z,98.00
2022-08-19T12:31:00.730Z,97.90
2022-08-19T12:33:28.826Z,97.60
2022-08-19T12:36:00.535Z,98.10
2022-08-19T12:38:27.367Z,97.80
2022-08-19T12:40:58.344Z,97.80
2022-08-19T12:43:26.877Z,97.70
2022-08-19T12:45:53.650Z,98.20
2022-08-19T12:48:34.451Z,97.80
2022-08-19T12:51:08.016Z,97.70
2022-08-19T12:53:34.857Z,98.00
2022-08-19T12:56:07.431Z,97.70
2022-08-19T12:58:38.279Z,97.20
2022-08-19T13:01:10.195Z,97.30
2022-08-19T13:03:40.456Z,97.00
2022-08-19T13:06:09.824Z,97.40
2022-08-19T13:08:36.664Z,97.40
2022-08-19T13:11:11.873Z,97.60
2022-08-19T13:13:39.909Z,98.10
2022-08-19T13:16:07.080Z,97.90
2022-08-19T13:18:33.873Z,97.80
2022-08-19T13:21:03.618Z,97.80
2022-08-19T13:23:31.863Z,97.70
2022-08-19T13:25:59.698Z,98.00
2022-08-19T13:28:29.355Z,98.10
2022-08-19T13:30:56.233Z,97.90
2022-08-19T13:33:22.977Z,98.10
2022-08-19T13:35:51.523Z,98.10
2022-08-19T13:38:21.816Z,97.90
2022-08-19T13:40:51.596Z,98.10
2022-08-19T13:43:22.828Z,98.20
2022-08-19T13:45:51.693Z,98.10
2022-08-19T13:48:18.433Z,97.60
2022-08-19T13:50:46.517Z,97.10
2022-08-19T13:53:13.354Z,97.10
2022-08-19T13:55:41.197Z,96.90
2022-08-19T13:58:10.704Z,96.80
2022-08-19T14:00:40.327Z,97.00
2022-08-19T14:03:09.247Z,96.90
2022-08-19T14:05:36.605Z,96.90
2022-08-19T14:08:04.373Z,96.70
2022-08-19T14:10:31.343Z,97.30
2022-08-19T14:13:03.510Z,97.00
2022-08-19T14:15:32.748Z,96.80
2022-08-19T14:17:59.845Z,97.00
2022-08-19T14:20:27.197Z,97.10
2022-08-19T14:22:55.010Z,97.10
2022-08-19T14:25:24.506Z,97.70
2022-08-19T14:27:51.784Z,96.90
2022-08-19T14:30:21.533Z,97.70
2022-08-19T14:32:49.651Z,97.50
2022-08-19T14:35:17.463Z,97.30
2022-08-19T14:37:46.208Z,97.00
2022-08-19T14:40:14.286Z,97.20
2022-08-19T14:42:41.186Z,97.10
2022-08-19T14:45:09.453Z,97.40
2022-08-19T14:47:36.262Z,97.20
2022-08-19T14:50:17.734Z,96.80
2022-08-19T14:52:45.491Z,97.00
2022-08-19T14:55:12.257Z,96.70
2022-08-19T14:57:41.031Z,96.80
2022-08-19T15:00:09.483Z,96.80
2022-08-19T15:02:36.305Z,97.30
2022-08-19T15:05:03.238Z,97.00
2022-08-19T15:07:31.316Z,97.30
2022-08-19T15:09:58.226Z,97.50
2022-08-19T15:12:25.591Z,97.40
2022-08-19T15:14:56.173Z,98.00
2022-08-19T15:17:45.164Z,97.70
2022-08-19T15:20:12.168Z,97.60
2022-08-19T15:22:40.872Z,97.30
2022-08-19T15:25:11.639Z,97.50
2022-08-19T15:27:38.859Z,97.30
2022-08-19T15:30:06.941Z,97.30
2022-08-19T15:32:33.675Z,97.40
2022-08-19T15:35:00.413Z,97.60
2022-08-19T15:37:27.166Z,97.50
2022-08-19T15:39:55.362Z,97.40
2022-08-19T15:42:29.666Z,97.40
2022-08-19T15:45:00.417Z,97.60
2022-08-19T15:47:29.190Z,97.70
2022-08-19T15:50:04.727Z,97.30
2022-08-19T15:52:31.511Z,97.30
2022-08-19T15:55:01.010Z,97.50
2022-08-19T15:57:27.737Z,97.80
2022-08-19T15:59:54.529Z,97.50
2022-08-19T16:02:23.522Z,97.80
2022-08-19T16:04:59.046Z,97.80
2022-08-19T16:07:25.835Z,97.40
2022-08-19T16:09:52.577Z,97.60
2022-08-19T16:12:20.705Z,97.50
2022-08-19T16:14:47.441Z,97.80
2022-08-19T16:17:14.197Z,98.50
2022-08-19T16:19:40.988Z,98.20
2022-08-19T16:22:08.150Z,98.80
2022-08-19T16:24:34.913Z,98.60
2022-08-19T16:27:01.679Z,98.30
2022-08-19T16:29:34.747Z,98.70
2022-08-19T16:32:11.513Z,98.70
2022-08-19T16:34:39.045Z,98.40
2022-08-19T16:37:05.980Z,98.50
2022-08-19T16:39:32.951Z,98.30
2022-08-19T16:41:59.756Z,99.10
2022-08-19T16:44:26.690Z,99.20
2022-08-19T16:46:59.160Z,98.80
2022-08-19T16:49:53.183Z,98.40
2022-08-19T16:52:17.513Z,98.90
2022-08-19T16:54:46.281Z,98.50
2022-08-19T16:57:15.339Z,99.00
2022-08-19T16:59:48.093Z,98.30
2022-08-19T17:02:18.079Z,98.40
2022-08-19T17:04:45.047Z,98.00
2022-08-19T17:07:24.662Z,98.50
2022-08-19T17:09:51.413Z,98.20
2022-08-19T17:12:18.138Z,97.50
2022-08-19T17:14:45.689Z,97.30
2022-08-19T17:17:12.501Z,97.30
2022-08-19T17:19:41.176Z,97.50
2022-08-19T17:22:08.430Z,97.50
2022-08-19T17:24:38.098Z,97.10
2022-08-19T17:27:07.344Z,97.20
2022-08-19T17:29:34.392Z,97.30
2022-08-19T17:32:02.051Z,97.10
2022-08-19T17:34:28.833Z,97.00
2022-08-19T17:36:56.959Z,96.90
2022-08-19T17:39:24.062Z,97.10
2022-08-19T17:41:50.848Z,96.90
2022-08-19T17:44:17.602Z,96.30
2022-08-19T17:46:44.296Z,96.60
2022-08-19T17:49:11.040Z,96.30
2022-08-19T17:51:42.386Z,96.80
2022-08-19T17:54:12.791Z,96.40
2022-08-19T17:56:39.872Z,96.70
2022-08-19T17:59:09.105Z,97.00
2022-08-19T18:01:52.658Z,97.30
2022-08-19T18:04:22.452Z,96.90
2022-08-19T18:06:53.131Z,96.70
2022-08-19T18:09:23.904Z,96.30
2022-08-19T18:11:52.588Z,96.80
2022-08-19T18:14:20.175Z,96.60
2022-08-19T18:16:46.921Z,96.70
2022-08-19T18:19:13.842Z,96.50
2022-08-19T18:21:40.614Z,96.90
2022-08-19T18:24:07.619Z,96.50
2022-08-19T18:26:35.699Z,96.30
2022-08-19T18:29:02.500Z,96.50
2022-08-19T18:31:29.239Z,96.50
2022-08-19T18:33:56.021Z,96.70
2022-08-19T18:36:50.120Z,96.60
2022-08-19T18:39:09.479Z,96.00
2022-08-19T18:41:37.756Z,96.10
2022-08-19T18:44:04.508Z,96.20
2022-08-19T18:46:32.923Z,96.00
2022-08-19T18:49:03.690Z,96.30
2022-08-19T18:51:30.857Z,96.00
2022-08-19T18:53:58.414Z,95.90
2022-08-19T18:56:27.058Z,95.70
2022-08-19T18:58:55.542Z,95.80
2022-08-19T19:01:27.328Z,95.80
2022-08-19T19:03:55.357Z,95.60
2022-08-19T19:06:24.407Z,95.80
2022-08-19T19:08:52.694Z,95.80
2022-08-19T19:11:23.554Z,95.60
2022-08-19T19:13:50.385Z,95.80
2022-08-19T19:16:22.396Z,95.80
2022-08-19T19:18:51.612Z,95.70
2022-08-19T19:21:18.834Z,95.80
2022-08-19T19:23:45.716Z,95.80
2022-08-19T19:26:13.354Z,95.70
2022-08-19T19:28:41.932Z,95.70
2022-08-19T19:31:10.666Z,95.50
2022-08-19T19:33:38.771Z,95.60
2022-08-19T19:36:05.740Z,95.30
2022-08-19T19:38:32.451Z,95.30
2022-08-19T19:40:59.208Z,95.40
2022-08-19T19:43:26.013Z,95.40
2022-08-19T19:45:52.723Z,95.60
2022-08-19T19:48:19.630Z,95.40
2022-08-19T19:50:53.288Z,95.40
2022-08-19T19:53:23.581Z,95.20
2022-08-19T19:55:53.142Z,95.50
2022-08-19T19:58:21.238Z,95.40
2022-08-19T20:00:55.789Z,95.50
2022-08-19T20:03:22.572Z,95.70
2022-08-19T20:05:51.078Z,95.20
2022-08-19T20:08:19.017Z,95.20
2022-08-19T20:10:45.914Z,95.60
2022-08-19T20:13:13.370Z,95.50
2022-08-19T20:15:42.630Z,95.30
2022-08-19T20:18:10.733Z,95.50
2022-08-19T20:20:37.525Z,95.50
2022-08-19T20:23:05.604Z,95.60
2022-08-19T20:25:33.133Z,95.50
2022-08-19T20:27:59.949Z,95.70
2022-08-19T20:30:28.457Z,95.20
2022-08-19T20:32:57.791Z,95.60
2022-08-19T20:35:24.780Z,96.00
2022-08-19T20:37:56.120Z,95.80
2022-08-19T20:40:26.685Z,96.00
2022-08-19T20:42:53.699Z,95.90
2022-08-19T20:45:33.276Z,95.90
2022-08-19T20:48:00.617Z,95.70
2022-08-19T20:50:29.971Z,96.00
2022-08-19T20:52:57.248Z,95.90
2022-08-19T20:55:24.474Z,95.90
2022-08-19T20:57:52.653Z,95.90
2022-08-19T21:00:19.630Z,95.90
2022-08-19T21:02:46.395Z,96.20
2022-08-19T21:05:13.215Z,96.70
2022-08-19T21:07:39.984Z,96.00
2022-08-19T21:10:07.670Z,96.30
2022-08-19T21:12:34.616Z,96.40
2022-08-19T21:15:02.910Z,96.60
2022-08-19T21:17:29.661Z,96.50
2022-08-19T21:19:56.393Z,96.40
2022-08-19T21:22:23.135Z,96.00
2022-08-19T21:24:49.898Z,96.00
2022-08-19T21:27:17.011Z,96.60
2022-08-19T21:29:43.733Z,96.30
2022-08-19T21:32:14.093Z,96.10
2022-08-19T21:34:41.671Z,96.20
2022-08-19T21:37:13.949Z,96.40
2022-08-19T21:39:52.419Z,96.30
2022-08-19T21:42:19.173Z,96.60
2022-08-19T21:44:46.189Z,96.90
2022-08-19T21:47:14.278Z,96.90
2022-08-19T21:49:41.132Z,96.70
2022-08-19T21:52:08.170Z,96.50
2022-08-19T21:54:37.710Z,96.40
2022-08-19T21:57:06.997Z,96.70
2022-08-19T21:59:37.496Z,97.10
2022-08-19T22:02:19.012Z,97.00
2022-08-19T22:04:49.016Z,97.20
2022-08-19T22:07:16.355Z,96.90
2022-08-19T22:09:44.529Z,97.60
2022-08-19T22:12:21.333Z,97.20
2022-08-19T22:14:48.056Z,97.70
2022-08-19T22:17:14.810Z,97.90
2022-08-19T22:19:41.563Z,97.30
2022-08-19T22:22:09.773Z,97.60
2022-08-19T22:24:36.537Z,97.60
2022-08-19T22:27:03.418Z,97.80
2022-08-19T22:29:33.668Z,97.70
2022-08-19T22:32:00.978Z,97.50
2022-08-19T22:34:47.699Z,97.30
2022-08-19T22:37:15.810Z,97.60
2022-08-19T22:39:42.578Z,97.90
2022-08-19T22:42:09.345Z,97.20
2022-08-19T22:44:36.133Z,97.60
2022-08-19T22:47:02.913Z,97.70
2022-08-19T22:49:29.682Z,97.30
2022-08-19T22:51:56.401Z,97.50
2022-08-19T22:54:24.507Z,98.10
2022-08-19T22:56:51.366Z,98.10
2022-08-19T22:59:18.171Z,98.00
2022-08-19T23:01:44.956Z,98.00
2022-08-19T23:04:11.713Z,98.40
2022-08-19T23:06:41.846Z,98.40
2022-08-19T23:09:09.778Z,97.70
2022-08-19T23:11:42.138Z,98.10
2022-08-19T23:14:09.844Z,98.00
2022-08-19T23:16:36.567Z,98.10
2022-08-19T23:19:03.410Z,98.60
2022-08-19T23:21:30.407Z,98.00
2022-08-19T23:23:57.198Z,97.90
2022-08-19T23:26:24.069Z,98.00
2022-08-19T23:28:52.181Z,97.90
2022-08-19T23:31:18.914Z,97.90
2022-08-19T23:33:51.479Z,97.50
2022-08-19T23:36:20.516Z,98.70
2022-08-19T23:38:49.030Z,98.20
2022-08-19T23:41:19.669Z,98.40
2022-08-19T23:43:46.626Z,98.40
2022-08-19T23:46:27.638Z,97.90
2022-08-19T23:48:55.417Z,98.50
2022-08-19T23:51:22.140Z,98.80
2022-08-19T23:53:48.851Z,98.70
2022-08-19T23:56:15.657Z,98.50
2022-08-19T23:58:42.373Z,98.80
